createdAt,value
2022-07-27T00:02:13.361Z,99370.47
2022-07-27T00:06:15.073Z,99365.22
2022-07-27T00:10:17.148Z,99360.06
2022-07-27T00:14:19.124Z,99361.91
2022-07-27T00:18:20.754Z,99369.69
2022-07-27T00:22:23.544Z,99371.09
2022-07-27T00:26:24.978Z,99361.63
2022-07-27T00:30:26.516Z,99370.72
2022-07-27T00:34:28.558Z,99370.72
2022-07-27T00:38:30.482Z,99356.69
2022-07-27T00:42:32.486Z,99356.69
2022-07-27T00:46:34.206Z,99361.78
2022-07-27T00:50:36.578Z,99358.97
2022-07-27T00:54:38.396Z,99354.97
2022-07-27T00:58:40.507Z,99349.56
2022-07-27T01:02:45.704Z,99344.06
2022-07-27T01:06:49.382Z,99342.19
2022-07-27T01:10:54.995Z,99342.91
2022-07-27T01:14:58.163Z,99347.19
2022-07-27T01:19:00.794Z,99347.13
2022-07-27T01:23:02.398Z,99345.28
2022-07-27T01:27:05.969Z,99348.88
2022-07-27T01:31:07.784Z,99341.00
2022-07-27T01:35:09.895Z,99333.91
2022-07-27T01:39:13.139Z,99336.47
2022-07-27T01:43:15.033Z,99337.38
2022-07-27T01:47:16.556Z,99340.88
2022-07-27T01:51:17.967Z,99336.34
2022-07-27T01:55:19.934Z,99336.41
2022-07-27T01:59:21.413Z,99334.63
2022-07-27T02:03:23.231Z,99328.53
2022-07-27T02:07:24.763Z,99334.75
2022-07-27T02:11:45.061Z,99331.16
2022-07-27T02:15:48.295Z,99325.03
2022-07-27T02:19:50.890Z,99320.75
2022-07-27T02:23:52.419Z,99331.34
2022-07-27T02:27:54.217Z,99331.78
2022-07-27T02:31:55.694Z,99326.00
2022-07-27T02:35:57.415Z,99327.06
2022-07-27T02:39:59.186Z,99331.53
2022-07-27T02:44:01.139Z,99331.41
2022-07-27T02:48:03.029Z,99341.66
2022-07-27T02:52:06.043Z,99334.66
2022-07-27T02:56:07.642Z,99333.81
2022-07-27T03:00:13.096Z,99334.66
2022-07-27T03:04:15.735Z,99337.66
2022-07-27T03:08:17.311Z,99345.06
2022-07-27T03:12:18.967Z,99335.69
2022-07-27T03:16:20.739Z,99336.44
2022-07-27T03:20:22.842Z,99331.00
2022-07-27T03:24:24.606Z,99338.03
2022-07-27T03:28:26.338Z,99339.91
2022-07-27T03:32:28.399Z,99351.41
2022-07-27T03:36:30.671Z,99346.25
2022-07-27T03:40:34.016Z,99341.84
2022-07-27T03:44:35.548Z,99334.72
2022-07-27T03:48:37.404Z,99340.88
2022-07-27T03:52:38.911Z,99344.44
2022-07-27T03:56:42.331Z,99337.56
2022-07-27T04:00:45.299Z,99342.97
2022-07-27T04:04:46.861Z,99334.28
2022-07-27T04:08:48.344Z,99335.13
2022-07-27T04:12:52.272Z,99327.31
2022-07-27T04:16:54.587Z,99331.72
2022-07-27T04:20:56.435Z,99332.69
2022-07-27T04:24:58.142Z,99318.81
2022-07-27T04:29:00.144Z,99322.41
2022-07-27T04:33:02.217Z,99325.09
2022-07-27T04:37:06.062Z,99327.59
2022-07-27T04:41:07.726Z,99329.19
2022-07-27T04:45:09.690Z,99330.00
2022-07-27T04:49:12.733Z,99339.53
2022-07-27T04:53:15.110Z,99341.19
2022-07-27T04:57:16.661Z,99344.59
2022-07-27T05:01:18.282Z,99343.56
2022-07-27T05:05:19.960Z,99350.38
2022-07-27T05:09:22.511Z,99359.84
2022-07-27T05:13:24.478Z,99368.75
2022-07-27T05:17:28.564Z,99372.09
2022-07-27T05:21:31.127Z,99372.06
2022-07-27T05:25:33.278Z,99375.47
2022-07-27T05:29:35.760Z,99378.00
2022-07-27T05:33:38.396Z,99382.97
2022-07-27T05:37:40.268Z,99380.06
2022-07-27T05:41:42.001Z,99378.19
2022-07-27T05:45:43.545Z,99379.72
2022-07-27T05:49:45.190Z,99383.06
2022-07-27T05:53:49.242Z,99384.72
2022-07-27T05:57:50.853Z,99385.47
2022-07-27T06:01:52.403Z,99394.94
2022-07-27T06:06:13.951Z,99388.63
2022-07-27T06:10:15.582Z,99392.81
2022-07-27T06:14:17.205Z,99397.84
2022-07-27T06:18:18.754Z,99395.19
2022-07-27T06:22:21.486Z,99400.72
2022-07-27T06:26:24.694Z,99412.09
2022-07-27T06:30:26.837Z,99407.09
2022-07-27T06:34:28.351Z,99413.00
2022-07-27T06:38:30.718Z,99418.72
2022-07-27T06:42:32.401Z,99419.13
2022-07-27T06:46:34.014Z,99414.44
2022-07-27T06:50:35.544Z,99419.31
2022-07-27T06:54:37.039Z,99426.88
2022-07-27T06:58:38.613Z,99430.25
2022-07-27T07:02:53.204Z,99416.88
2022-07-27T07:07:05.281Z,99417.50
2022-07-27T07:11:13.115Z,99424.09
2022-07-27T07:15:32.516Z,99412.91
2022-07-27T07:19:40.887Z,99425.31
2022-07-27T07:23:52.422Z,99427.47
2022-07-27T07:28:11.043Z,99422.50
2022-07-27T07:32:34.495Z,99428.84
2022-07-27T07:41:37.223Z,99427.78
2022-07-27T07:55:33.393Z,99422.31
2022-07-27T07:59:47.167Z,99426.44
2022-07-27T08:04:01.347Z,99423.63
2022-07-27T08:23:31.869Z,99421.19
2022-07-27T08:27:40.711Z,99416.34
2022-07-27T08:36:06.456Z,99418.44
2022-07-27T08:44:31.926Z,99423.09
2022-07-27T08:48:33.568Z,99419.38
2022-07-27T08:52:36.579Z,99413.22
2022-07-27T08:56:38.069Z,99415.28
2022-07-27T09:00:46.141Z,99414.91
2022-07-27T09:04:47.672Z,99421.56
2022-07-27T09:08:59.391Z,99413.19
2022-07-27T09:13:17.925Z,99418.22
2022-07-27T09:17:47.941Z,99412.91
2022-07-27T09:21:49.797Z,99405.53
2022-07-27T09:26:21.689Z,99417.38
2022-07-27T09:30:31.152Z,99414.25
2022-07-27T09:34:34.349Z,99411.59
2022-07-27T09:38:36.176Z,99413.22
2022-07-27T09:43:08.973Z,99412.81
2022-07-27T09:46:59.950Z,99417.59
2022-07-27T09:51:24.224Z,99407.22
2022-07-27T09:55:25.926Z,99408.22
2022-07-27T09:59:28.368Z,99414.44
2022-07-27T10:03:31.314Z,99404.88
2022-07-27T10:07:33.306Z,99408.19
2022-07-27T10:11:36.420Z,99417.88
2022-07-27T10:15:41.610Z,99409.41
2022-07-27T10:19:50.450Z,99406.69
2022-07-27T10:24:00.267Z,99411.56
2022-07-27T10:28:10.360Z,99414.06
2022-07-27T10:32:11.826Z,99406.81
2022-07-27T10:36:18.326Z,99411.63
2022-07-27T10:40:34.878Z,99405.25
2022-07-27T10:44:36.295Z,99395.94
2022-07-27T10:48:44.319Z,99402.88
2022-07-27T10:52:55.753Z,99400.63
2022-07-27T10:56:58.902Z,99400.34
2022-07-27T11:01:09.229Z,99381.13
2022-07-27T11:05:53.717Z,99381.59
2022-07-27T11:14:03.896Z,99376.84
2022-07-27T11:18:05.558Z,99377.75
2022-07-27T11:22:27.686Z,99371.63
2022-07-27T11:26:31.579Z,99371.94
2022-07-27T11:30:33.017Z,99365.13
2022-07-27T11:34:36.086Z,99370.53
2022-07-27T11:38:55.302Z,99352.78
2022-07-27T11:42:56.826Z,99355.94
2022-07-27T11:47:02.010Z,99353.81
2022-07-27T11:51:03.991Z,99348.84
2022-07-27T11:55:06.180Z,99351.50
2022-07-27T11:59:10.823Z,99345.88
2022-07-27T12:03:46.863Z,99341.88
2022-07-27T12:07:48.940Z,99338.50
2022-07-27T12:11:57.934Z,99341.84
2022-07-27T12:15:59.693Z,99337.28
2022-07-27T12:20:04.259Z,99334.91
2022-07-27T12:24:06.149Z,99339.97
2022-07-27T12:28:17.901Z,99329.03
2022-07-27T12:32:19.460Z,99333.84
2022-07-27T12:36:26.985Z,99335.97
2022-07-27T12:40:29.993Z,99335.47
2022-07-27T12:44:36.621Z,99332.25
2022-07-27T12:48:41.228Z,99340.44
2022-07-27T12:52:53.180Z,99331.00
2022-07-27T12:56:54.599Z,99334.28
2022-07-27T13:00:56.232Z,99326.41
2022-07-27T13:04:57.703Z,99328.09
2022-07-27T13:08:59.226Z,99322.22
2022-07-27T13:13:00.855Z,99326.94
2022-07-27T13:17:02.418Z,99326.56
2022-07-27T13:21:03.915Z,99327.78
2022-07-27T13:25:16.584Z,99325.13
2022-07-27T13:29:18.650Z,99325.00
2022-07-27T13:33:20.939Z,99315.13
2022-07-27T13:37:22.776Z,99319.81
2022-07-27T13:41:24.264Z,99305.81
2022-07-27T13:45:25.781Z,99297.94
2022-07-27T13:49:27.317Z,99293.50
2022-07-27T13:53:28.990Z,99287.31
2022-07-27T13:57:30.359Z,99278.88
2022-07-27T14:01:33.295Z,99274.50
2022-07-27T14:05:36.899Z,99288.34
2022-07-27T14:09:59.591Z,99286.44
2022-07-27T14:14:01.893Z,99283.28
2022-07-27T14:18:03.559Z,99283.50
2022-07-27T14:22:05.131Z,99282.94
2022-07-27T14:26:07.819Z,99284.78
2022-07-27T14:30:09.789Z,99284.81
2022-07-27T14:34:11.301Z,99276.03
2022-07-27T14:38:12.875Z,99275.25
2022-07-27T14:42:14.336Z,99279.09
2022-07-27T14:46:15.844Z,99274.50
2022-07-27T14:50:17.294Z,99265.00
2022-07-27T14:54:18.916Z,99255.91
2022-07-27T14:58:20.306Z,99254.66
2022-07-27T15:02:22.254Z,99254.88
2022-07-27T15:06:24.045Z,99251.94
2022-07-27T15:10:25.521Z,99245.44
2022-07-27T15:14:27.618Z,99241.97
2022-07-27T15:18:35.076Z,99239.19
2022-07-27T15:22:39.753Z,99230.91
2022-07-27T15:26:41.412Z,99239.53
2022-07-27T15:30:42.761Z,99236.84
2022-07-27T15:34:44.184Z,99237.34
2022-07-27T15:38:45.661Z,99236.34
2022-07-27T15:42:47.218Z,99243.22
2022-07-27T15:46:48.938Z,99246.09
2022-07-27T15:50:53.435Z,99239.47
2022-07-27T15:54:55.270Z,99236.34
2022-07-27T15:58:56.807Z,99235.59
2022-07-27T16:02:58.230Z,99230.28
2022-07-27T16:06:59.958Z,99232.06
2022-07-27T16:11:01.516Z,99226.75
2022-07-27T16:15:03.713Z,99220.69
2022-07-27T16:19:12.803Z,99219.00
2022-07-27T16:23:18.995Z,99211.03
2022-07-27T16:27:23.345Z,99199.25
2022-07-27T16:31:24.961Z,99199.78
2022-07-27T16:35:27.824Z,99198.22
2022-07-27T16:39:29.378Z,99206.00
2022-07-27T16:43:37.995Z,99202.59
2022-07-27T16:47:40.240Z,99216.19
2022-07-27T16:51:41.827Z,99210.44
2022-07-27T16:55:43.252Z,99210.13
2022-07-27T16:59:44.704Z,99213.06
2022-07-27T17:03:49.103Z,99206.56
2022-07-27T17:07:52.270Z,99210.06
2022-07-27T17:11:54.434Z,99210.81
2022-07-27T17:15:56.182Z,99203.03
2022-07-27T17:19:57.813Z,99201.88
2022-07-27T17:23:59.462Z,99192.63
2022-07-27T17:28:00.921Z,99198.31
2022-07-27T17:32:02.401Z,99195.03
2022-07-27T17:36:04.415Z,99195.97
2022-07-27T17:40:06.584Z,99196.81
2022-07-27T17:44:08.118Z,99197.28
2022-07-27T17:48:09.534Z,99207.66
2022-07-27T17:52:11.602Z,99194.97
2022-07-27T17:56:13.321Z,99197.97
2022-07-27T18:00:15.998Z,99198.25
2022-07-27T18:04:17.579Z,99194.84
2022-07-27T18:08:19.462Z,99198.63
2022-07-27T18:12:22.011Z,99189.31
2022-07-27T18:16:23.629Z,99200.38
2022-07-27T18:20:25.189Z,99194.69
2022-07-27T18:24:28.961Z,99206.44
2022-07-27T18:28:35.830Z,99204.25
2022-07-27T18:32:40.691Z,99210.09
2022-07-27T18:36:42.480Z,99204.78
2022-07-27T18:40:45.530Z,99209.50
2022-07-27T18:44:47.154Z,99213.13
2022-07-27T18:48:49.503Z,99214.97
2022-07-27T18:52:50.915Z,99225.44
2022-07-27T18:56:52.399Z,99223.31
2022-07-27T19:00:54.964Z,99221.06
2022-07-27T19:04:57.743Z,99235.38
2022-07-27T19:08:59.442Z,99237.06
2022-07-27T19:13:00.822Z,99235.31
2022-07-27T19:17:02.474Z,99236.25
2022-07-27T19:21:04.234Z,99228.13
2022-07-27T19:25:07.854Z,99231.75
2022-07-27T19:29:11.066Z,99245.72
2022-07-27T19:33:13.259Z,99252.56
2022-07-27T19:37:14.734Z,99258.69
2022-07-27T19:41:16.237Z,99254.19
2022-07-27T19:45:17.750Z,99253.19
2022-07-27T19:49:19.472Z,99262.78
2022-07-27T19:53:21.052Z,99261.03
2022-07-27T19:57:22.694Z,99271.75
2022-07-27T20:01:25.777Z,99277.56
2022-07-27T20:05:27.278Z,99273.78
2022-07-27T20:09:29.040Z,99278.25
2022-07-27T20:13:30.829Z,99287.38
2022-07-27T20:17:36.875Z,99288.38
2022-07-27T20:21:40.274Z,99285.88
2022-07-27T20:25:42.119Z,99288.03
2022-07-27T20:29:43.586Z,99290.09
2022-07-27T20:33:45.165Z,99284.91
2022-07-27T20:37:47.630Z,99287.53
2022-07-27T20:41:49.066Z,99291.16
2022-07-27T20:45:50.630Z,99296.47
2022-07-27T20:49:52.425Z,99300.03
2022-07-27T20:53:53.883Z,99295.91
2022-07-27T20:57:55.357Z,99297.16
2022-07-27T21:01:56.815Z,99301.84
2022-07-27T21:05:58.279Z,99309.22
2022-07-27T21:09:59.906Z,99313.78
2022-07-27T21:14:01.557Z,99307.03
2022-07-27T21:18:03.216Z,99310.00
2022-07-27T21:22:04.849Z,99303.25
2022-07-27T21:26:06.619Z,99302.38
2022-07-27T21:30:09.631Z,99301.53
2022-07-27T21:34:11.131Z,99308.69
2022-07-27T21:38:12.732Z,99304.44
2022-07-27T21:42:14.189Z,99307.19
2022-07-27T21:46:16.008Z,99307.38
2022-07-27T21:50:18.055Z,99311.03
2022-07-27T21:54:20.117Z,99309.44
2022-07-27T21:58:21.637Z,99312.25
2022-07-27T22:02:23.097Z,99301.00
2022-07-27T22:06:29.776Z,99288.81
2022-07-27T22:10:31.970Z,99289.78
2022-07-27T22:14:33.618Z,99297.94
2022-07-27T22:18:35.760Z,99301.59
2022-07-27T22:22:37.183Z,99294.84
2022-07-27T22:26:38.605Z,99308.09
2022-07-27T22:30:43.623Z,99313.66
2022-07-27T22:35:05.430Z,99318.28
2022-07-27T22:39:07.280Z,99323.72
2022-07-27T22:43:08.817Z,99321.25
2022-07-27T22:47:10.321Z,99318.75
2022-07-27T22:51:11.878Z,99319.75
2022-07-27T22:55:13.262Z,99325.25
2022-07-27T22:59:14.807Z,99326.28
2022-07-27T23:03:16.461Z,99323.06
2022-07-27T23:07:18.035Z,99324.94
2022-07-27T23:11:19.486Z,99324.25
2022-07-27T23:15:21.275Z,99318.44
2022-07-27T23:19:22.716Z,99314.28
2022-07-27T23:23:24.427Z,99317.88
2022-07-27T23:27:29.154Z,99312.88
2022-07-27T23:31:30.775Z,99315.63
2022-07-27T23:35:32.480Z,99309.63
2022-07-27T23:39:34.760Z,99308.88
2022-07-27T23:43:36.382Z,99308.06
2022-07-27T23:47:39.045Z,99307.41
2022-07-27T23:51:40.418Z,99301.31
2022-07-27T23:55:42.386Z,99299.72
2022-07-27T23:59:43.816Z,99300.69
